createdAt,value
2024-02-16T00:02:09.966Z,2.25
2024-02-16T00:04:36.974Z,2.78
2024-02-16T00:07:03.815Z,4.57
2024-02-16T00:09:30.546Z,2.50
2024-02-16T00:11:57.269Z,3.13
2024-02-16T00:14:23.895Z,3.38
2024-02-16T00:19:17.736Z,2.58
2024-02-16T00:21:44.510Z,2.60
2024-02-16T00:26:40.936Z,4.60
2024-02-16T00:29:07.916Z,3.28
2024-02-16T00:31:34.557Z,2.35
2024-02-16T00:36:29.295Z,4.82
2024-02-16T00:38:56.203Z,3.35
2024-02-16T00:41:24.325Z,3.92
2024-02-16T00:43:53.388Z,3.05
2024-02-16T00:46:20.177Z,4.22
2024-02-16T00:48:48.052Z,3.28
2024-02-16T00:51:15.143Z,2.65
2024-02-16T00:53:41.879Z,4.65
2024-02-16T00:58:35.530Z,2.80
2024-02-16T01:01:02.233Z,2.38
2024-02-16T01:05:55.639Z,3.67
2024-02-16T01:08:24.415Z,3.30
2024-02-16T01:10:51.072Z,3.30
2024-02-16T01:13:17.880Z,4.40
2024-02-16T01:18:13.012Z,2.15
2024-02-16T01:20:39.707Z,3.60
2024-02-16T01:25:33.236Z,3.28
2024-02-16T01:28:00.236Z,4.43
2024-02-16T01:30:26.930Z,3.70
2024-02-16T01:35:21.260Z,3.97
2024-02-16T01:37:49.157Z,3.58
2024-02-16T01:40:18.198Z,2.83
2024-02-16T01:42:45.190Z,3.50
2024-02-16T01:45:16.651Z,3.28
2024-02-16T01:47:45.314Z,3.85
2024-02-16T01:50:12.501Z,3.17
2024-02-16T01:52:39.352Z,4.95
2024-02-16T01:55:10.084Z,3.40
2024-02-16T01:57:48.261Z,2.45
2024-02-16T02:00:18.681Z,3.30
2024-02-16T02:02:47.650Z,3.38
2024-02-16T02:05:16.159Z,4.55
2024-02-16T02:07:44.089Z,3.85
2024-02-16T02:10:13.990Z,4.50
2024-02-16T02:12:41.382Z,2.75
2024-02-16T02:15:08.655Z,4.13
2024-02-16T02:17:36.131Z,4.57
2024-02-16T02:20:05.188Z,3.15
2024-02-16T02:22:32.080Z,4.18
2024-02-16T02:27:25.323Z,5.88
2024-02-16T02:32:19.049Z,4.22
2024-02-16T02:37:12.497Z,3.72
2024-02-16T02:39:39.224Z,3.97
2024-02-16T02:42:06.115Z,3.67
2024-02-16T02:44:33.966Z,3.90
2024-02-16T02:47:00.675Z,3.35
2024-02-16T02:51:53.954Z,3.65
2024-02-16T02:54:20.669Z,4.32
2024-02-16T02:59:14.224Z,3.80
2024-02-16T03:04:08.366Z,4.50
2024-02-16T03:06:35.149Z,3.80
2024-02-16T03:09:01.902Z,3.47
2024-02-16T03:13:55.167Z,4.22
2024-02-16T03:16:21.794Z,3.38
2024-02-16T03:18:48.715Z,3.90
2024-02-16T03:21:19.158Z,3.67
2024-02-16T03:23:46.125Z,4.82
2024-02-16T03:28:47.804Z,4.38
2024-02-16T03:31:23.208Z,4.60
2024-02-16T03:33:51.359Z,3.20
2024-02-16T03:36:20.170Z,2.78
2024-02-16T03:38:48.303Z,3.30
2024-02-16T03:41:16.590Z,3.92
2024-02-16T03:43:44.009Z,6.82
2024-02-16T03:46:11.053Z,4.70
2024-02-16T03:48:38.068Z,3.75
2024-02-16T03:51:05.048Z,5.35
2024-02-16T03:53:31.702Z,4.22
2024-02-16T03:55:58.477Z,5.85
2024-02-16T03:58:25.815Z,3.85
2024-02-16T04:00:56.074Z,3.95
2024-02-16T04:03:22.943Z,3.80
2024-02-16T04:05:49.736Z,4.75
2024-02-16T04:08:16.459Z,4.07
2024-02-16T04:10:43.204Z,3.40
2024-02-16T04:13:09.974Z,4.20
2024-02-16T04:15:36.754Z,4.18
2024-02-16T04:18:03.842Z,5.45
2024-02-16T04:20:30.555Z,5.05
2024-02-16T04:22:57.361Z,4.05
2024-02-16T04:27:51.959Z,3.08
2024-02-16T04:30:18.712Z,4.22
2024-02-16T04:35:15.966Z,3.25
2024-02-16T04:37:42.705Z,3.67
2024-02-16T04:42:36.254Z,3.20
2024-02-16T04:45:06.537Z,8.05
2024-02-16T04:47:33.573Z,5.13
2024-02-16T04:52:30.321Z,3.25
2024-02-16T04:54:57.468Z,2.80
2024-02-16T04:57:24.110Z,4.68
2024-02-16T05:02:17.460Z,3.85
2024-02-16T05:04:44.110Z,4.28
2024-02-16T05:09:37.642Z,4.18
2024-02-16T05:12:04.984Z,4.32
2024-02-16T05:14:31.729Z,4.13
2024-02-16T05:19:27.103Z,4.93
2024-02-16T05:21:53.809Z,3.15
2024-02-16T05:24:21.743Z,3.72
2024-02-16T05:26:48.957Z,4.18
2024-02-16T05:31:42.178Z,4.88
2024-02-16T05:36:37.662Z,4.88
2024-02-16T05:39:27.839Z,3.67
2024-02-16T05:41:55.042Z,4.93
2024-02-16T05:44:21.757Z,3.17
2024-02-16T05:49:17.373Z,3.95
2024-02-16T05:52:01.317Z,4.28
2024-02-16T05:54:28.490Z,2.63
2024-02-16T05:56:55.258Z,2.80
2024-02-16T06:01:50.224Z,4.47
2024-02-16T06:04:17.788Z,3.22
2024-02-16T06:06:44.609Z,3.90
2024-02-16T06:09:11.345Z,3.10
2024-02-16T06:14:05.828Z,3.55
2024-02-16T06:16:32.526Z,3.72
2024-02-16T06:21:25.887Z,5.85
2024-02-16T06:23:52.552Z,4.75
2024-02-16T06:28:45.692Z,4.20
2024-02-16T06:31:13.644Z,4.00
2024-02-16T06:33:40.371Z,4.60
2024-02-16T06:36:08.353Z,4.43
2024-02-16T06:38:35.006Z,3.78
2024-02-16T06:41:01.681Z,5.82
2024-02-16T06:43:28.265Z,3.33
2024-02-16T06:45:56.674Z,3.53
2024-02-16T06:48:23.952Z,5.10
2024-02-16T06:50:50.705Z,3.80
2024-02-16T06:53:17.375Z,3.10
2024-02-16T06:58:10.578Z,4.05
2024-02-16T07:03:04.087Z,4.18
2024-02-16T07:05:34.030Z,3.45
2024-02-16T07:08:02.653Z,3.80
2024-02-16T07:10:29.268Z,3.78
2024-02-16T07:12:55.886Z,4.15
2024-02-16T07:17:49.164Z,4.47
2024-02-16T07:22:43.733Z,3.85
2024-02-16T07:25:11.214Z,4.10
2024-02-16T07:27:37.932Z,4.10
2024-02-16T07:30:05.499Z,5.15
2024-02-16T07:32:32.199Z,5.25
2024-02-16T07:37:25.415Z,4.57
2024-02-16T07:39:53.158Z,4.38
2024-02-16T07:42:19.839Z,5.95
2024-02-16T07:47:13.710Z,4.93
2024-02-16T07:49:43.138Z,5.00
2024-02-16T07:52:10.262Z,4.88
2024-02-16T07:54:37.340Z,5.85
2024-02-16T07:57:05.392Z,6.28
2024-02-16T07:59:32.080Z,9.10
2024-02-16T08:01:59.725Z,5.30
2024-02-16T08:04:26.333Z,5.32
2024-02-16T08:06:53.108Z,5.00
2024-02-16T08:09:19.925Z,5.30
2024-02-16T08:11:46.598Z,5.13
2024-02-16T08:16:39.737Z,3.95
2024-02-16T08:19:06.968Z,4.88
2024-02-16T08:21:33.802Z,6.47
2024-02-16T08:24:00.553Z,4.80
2024-02-16T08:26:27.963Z,4.97
2024-02-16T08:28:54.662Z,5.43
2024-02-16T08:33:48.535Z,6.35
2024-02-16T08:36:16.200Z,5.63
2024-02-16T08:38:42.895Z,3.95
2024-02-16T08:43:36.198Z,3.65
2024-02-16T08:48:29.456Z,4.18
2024-02-16T08:50:56.105Z,4.32
2024-02-16T08:55:49.316Z,4.72
2024-02-16T09:00:42.578Z,7.15
2024-02-16T09:03:09.914Z,5.10
2024-02-16T09:05:37.915Z,4.15
2024-02-16T09:08:06.004Z,4.45
2024-02-16T09:10:32.706Z,5.45
2024-02-16T09:12:59.341Z,7.20
2024-02-16T09:17:52.752Z,4.07
2024-02-16T09:20:23.477Z,3.90
2024-02-16T09:22:50.347Z,4.43
2024-02-16T09:27:46.089Z,5.25
2024-02-16T09:30:14.050Z,6.15
2024-02-16T09:32:41.927Z,6.05
2024-02-16T09:35:09.550Z,6.63
2024-02-16T09:37:38.231Z,6.07
2024-02-16T09:40:06.662Z,3.85
2024-02-16T09:42:38.893Z,4.50
2024-02-16T09:45:08.194Z,5.63
2024-02-16T09:47:36.122Z,5.30
2024-02-16T09:50:03.980Z,4.55
2024-02-16T09:52:31.180Z,6.10
2024-02-16T09:54:57.875Z,6.15
2024-02-16T09:59:51.272Z,5.32
2024-02-16T10:02:18.410Z,6.43
2024-02-16T10:04:45.597Z,4.45
2024-02-16T10:07:13.678Z,7.15
2024-02-16T10:09:43.957Z,5.82
2024-02-16T10:12:11.252Z,5.90
2024-02-16T10:14:39.131Z,4.80
2024-02-16T10:17:08.432Z,4.07
2024-02-16T10:19:42.562Z,5.78
2024-02-16T10:22:14.299Z,4.38
2024-02-16T10:24:43.756Z,4.75
2024-02-16T10:27:18.857Z,4.15
2024-02-16T10:29:50.979Z,5.70
2024-02-16T10:32:18.224Z,5.43
2024-02-16T10:34:47.491Z,4.68
2024-02-16T10:37:15.954Z,7.78
2024-02-16T10:39:44.050Z,5.60
2024-02-16T10:42:12.912Z,7.35
2024-02-16T10:44:41.354Z,4.95
2024-02-16T10:47:08.006Z,6.47
2024-02-16T10:49:34.902Z,6.07
2024-02-16T10:52:04.064Z,7.80
2024-02-16T10:54:34.970Z,6.45
2024-02-16T10:57:01.963Z,7.72
2024-02-16T10:59:42.030Z,5.78
2024-02-16T11:02:08.664Z,8.18
2024-02-16T11:07:27.576Z,6.43
2024-02-16T11:12:22.920Z,5.35
2024-02-16T11:14:56.433Z,5.45
2024-02-16T11:17:24.792Z,6.43
2024-02-16T11:19:55.542Z,6.32
2024-02-16T11:22:22.399Z,7.00
2024-02-16T11:27:21.165Z,4.93
2024-02-16T11:29:49.790Z,5.78
2024-02-16T11:32:16.805Z,5.57
2024-02-16T11:34:43.646Z,5.63
2024-02-16T11:37:13.620Z,7.88
2024-02-16T11:39:41.961Z,7.38
2024-02-16T11:42:14.461Z,6.78
2024-02-16T11:44:51.378Z,6.30
2024-02-16T11:47:29.686Z,4.72
2024-02-16T11:52:30.700Z,5.10
2024-02-16T11:57:28.892Z,7.32
2024-02-16T11:59:56.169Z,6.93
2024-02-16T12:02:25.975Z,5.53
2024-02-16T12:05:04.008Z,5.90
2024-02-16T12:07:32.598Z,5.63
2024-02-16T12:10:00.914Z,6.00
2024-02-16T12:12:28.952Z,5.10
2024-02-16T12:14:56.794Z,5.00
2024-02-16T12:17:23.790Z,6.32
2024-02-16T12:19:52.711Z,5.38
2024-02-16T12:22:20.653Z,6.63
2024-02-16T12:24:48.808Z,5.85
2024-02-16T12:27:18.768Z,7.13
2024-02-16T12:29:45.690Z,7.38
2024-02-16T12:32:12.512Z,6.55
2024-02-16T12:34:39.414Z,5.22
2024-02-16T12:37:08.512Z,4.70
2024-02-16T12:39:35.957Z,4.13
2024-02-16T12:42:02.981Z,4.25
2024-02-16T12:44:29.745Z,4.22
2024-02-16T12:46:56.487Z,6.07
2024-02-16T12:49:23.872Z,5.28
2024-02-16T12:51:51.661Z,5.18
2024-02-16T12:54:21.814Z,4.78
2024-02-16T12:56:49.418Z,4.38
2024-02-16T12:59:16.108Z,6.15
2024-02-16T13:01:44.170Z,7.57
2024-02-16T13:04:11.021Z,6.47
2024-02-16T13:06:38.920Z,5.88
2024-02-16T13:09:06.704Z,5.82
2024-02-16T13:11:35.121Z,4.40
2024-02-16T13:14:02.032Z,4.95
2024-02-16T13:16:28.741Z,4.82
2024-02-16T13:21:22.184Z,7.32
2024-02-16T13:23:49.182Z,5.63
2024-02-16T13:26:16.155Z,8.70
2024-02-16T13:28:42.844Z,5.50
2024-02-16T13:31:11.338Z,6.05
2024-02-16T13:33:38.750Z,5.00
2024-02-16T13:36:06.609Z,5.88
2024-02-16T13:38:33.291Z,6.95
2024-02-16T13:43:27.334Z,6.68
2024-02-16T13:45:57.219Z,5.07
2024-02-16T13:48:24.090Z,5.57
2024-02-16T13:50:52.271Z,4.85
2024-02-16T13:53:21.769Z,6.63
2024-02-16T13:55:49.879Z,8.07
2024-02-16T13:58:16.985Z,5.00
2024-02-16T14:00:43.996Z,4.72
2024-02-16T14:03:12.981Z,5.25
2024-02-16T14:05:40.389Z,6.20
2024-02-16T14:08:09.771Z,5.90
2024-02-16T14:10:37.283Z,7.28
2024-02-16T14:13:04.753Z,6.25
2024-02-16T14:15:33.170Z,6.25
2024-02-16T14:18:04.548Z,5.68
2024-02-16T14:20:36.059Z,5.50
2024-02-16T14:23:03.975Z,4.97
2024-02-16T14:25:30.715Z,6.53
2024-02-16T14:27:59.370Z,5.80
2024-02-16T14:30:26.386Z,5.70
2024-02-16T14:32:55.236Z,4.85
2024-02-16T14:35:23.560Z,6.70
2024-02-16T14:37:50.845Z,6.22
2024-02-16T14:40:17.804Z,5.63
2024-02-16T14:42:44.601Z,5.40
2024-02-16T14:45:20.459Z,6.63
2024-02-16T14:47:49.062Z,6.75
2024-02-16T14:50:15.866Z,5.78
2024-02-16T14:55:14.885Z,10.75
2024-02-16T14:57:42.308Z,10.77
2024-02-16T15:00:10.727Z,9.90
2024-02-16T15:02:38.559Z,9.25
2024-02-16T15:05:06.628Z,8.73
2024-02-16T15:07:33.402Z,7.25
2024-02-16T15:10:00.618Z,6.82
2024-02-16T15:12:28.522Z,10.75
2024-02-16T15:14:56.051Z,8.27
2024-02-16T15:17:23.111Z,7.05
2024-02-16T15:19:50.147Z,9.77
2024-02-16T15:22:17.111Z,8.15
2024-02-16T15:24:43.986Z,6.75
2024-02-16T15:27:11.693Z,6.63
2024-02-16T15:29:38.460Z,6.75
2024-02-16T15:34:31.951Z,8.20
2024-02-16T15:36:59.831Z,8.25
2024-02-16T15:39:26.685Z,8.15
2024-02-16T15:41:56.332Z,9.10
2024-02-16T15:44:23.204Z,8.45
2024-02-16T15:46:49.857Z,6.78
2024-02-16T15:51:43.745Z,8.07
2024-02-16T15:54:10.465Z,4.82
2024-02-16T15:56:37.953Z,6.53
2024-02-16T15:59:04.640Z,5.28
2024-02-16T16:04:00.797Z,5.80
2024-02-16T16:06:27.789Z,6.10
2024-02-16T16:08:57.676Z,5.50
2024-02-16T16:11:24.528Z,5.60
2024-02-16T16:13:51.223Z,7.05
2024-02-16T16:18:45.150Z,5.88
2024-02-16T16:21:11.985Z,6.20
2024-02-16T16:26:06.113Z,11.65
2024-02-16T16:28:33.416Z,6.85
2024-02-16T16:31:00.097Z,8.35
2024-02-16T16:35:54.361Z,4.50
2024-02-16T16:38:21.334Z,6.95
2024-02-16T16:40:48.236Z,5.38
2024-02-16T16:43:15.509Z,5.40
2024-02-16T16:45:43.556Z,5.28
2024-02-16T16:48:11.176Z,4.47
2024-02-16T16:50:38.605Z,6.80
2024-02-16T16:53:06.088Z,5.22
2024-02-16T16:55:33.667Z,5.47
2024-02-16T16:58:01.132Z,4.60
2024-02-16T17:00:28.626Z,8.25
2024-02-16T17:02:55.617Z,5.22
2024-02-16T17:05:22.295Z,5.80
2024-02-16T17:07:49.588Z,4.25
2024-02-16T17:10:17.247Z,5.18
2024-02-16T17:12:46.001Z,4.18
2024-02-16T17:15:19.827Z,4.60
2024-02-16T17:17:53.934Z,4.47
2024-02-16T17:20:26.095Z,4.30
2024-02-16T17:22:54.756Z,5.95
2024-02-16T17:25:23.342Z,5.78
2024-02-16T17:27:50.243Z,4.70
2024-02-16T17:30:20.917Z,4.75
2024-02-16T17:32:50.083Z,4.57
2024-02-16T17:35:17.895Z,4.88
2024-02-16T17:37:47.794Z,5.45
2024-02-16T17:40:15.085Z,5.85
2024-02-16T17:42:42.461Z,7.43
2024-02-16T17:45:10.183Z,7.07
2024-02-16T17:47:39.147Z,10.45
2024-02-16T17:50:07.555Z,7.15
2024-02-16T17:52:34.491Z,8.70
2024-02-16T17:55:05.564Z,8.25
2024-02-16T17:57:35.238Z,8.40
2024-02-16T18:00:02.108Z,9.48
2024-02-16T18:02:39.570Z,9.20
2024-02-16T18:05:11.236Z,8.98
2024-02-16T18:07:38.837Z,7.35
2024-02-16T18:10:07.612Z,6.55
2024-02-16T18:12:36.272Z,7.25
2024-02-16T18:15:05.193Z,6.03
2024-02-16T18:17:32.357Z,8.18
2024-02-16T18:19:59.271Z,6.97
2024-02-16T18:22:26.149Z,8.25
2024-02-16T18:24:52.893Z,8.27
2024-02-16T18:27:19.912Z,6.97
2024-02-16T18:29:46.765Z,6.28
2024-02-16T18:32:13.653Z,7.13
2024-02-16T18:34:40.787Z,8.23
2024-02-16T18:37:07.768Z,7.82
2024-02-16T18:39:35.376Z,8.27
2024-02-16T18:42:02.505Z,9.48
2024-02-16T18:44:29.375Z,9.80
2024-02-16T18:46:56.821Z,8.70
2024-02-16T18:49:23.899Z,6.53
2024-02-16T18:51:50.734Z,7.70
2024-02-16T18:56:44.012Z,9.05
2024-02-16T19:01:38.432Z,7.85
2024-02-16T19:04:05.296Z,6.40
2024-02-16T19:06:33.156Z,7.65
2024-02-16T19:09:00.186Z,7.13
2024-02-16T19:11:27.509Z,7.28
2024-02-16T19:13:54.291Z,7.15
2024-02-16T19:18:47.684Z,6.75
2024-02-16T19:21:14.628Z,7.00
2024-02-16T19:23:41.371Z,7.40
2024-02-16T19:28:40.365Z,9.25
2024-02-16T19:31:09.190Z,7.25
2024-02-16T19:33:37.186Z,8.77
2024-02-16T19:36:05.118Z,6.35
2024-02-16T19:38:32.824Z,7.40
2024-02-16T19:41:00.028Z,7.88
2024-02-16T19:43:29.143Z,4.72
2024-02-16T19:45:56.417Z,4.25
2024-02-16T19:48:23.953Z,2.10
2024-02-16T19:50:51.534Z,2.38
2024-02-16T19:53:19.137Z,2.15
2024-02-16T19:55:47.384Z,1.80
2024-02-16T19:58:14.392Z,1.75
2024-02-16T20:00:42.285Z,1.80
2024-02-16T20:03:09.676Z,2.65
2024-02-16T20:05:36.319Z,3.28
2024-02-16T20:08:03.090Z,3.83
2024-02-16T20:12:56.468Z,2.92
2024-02-16T20:15:29.971Z,5.00
2024-02-16T20:18:02.729Z,4.30
2024-02-16T20:20:29.674Z,3.40
2024-02-16T20:22:56.849Z,4.15
2024-02-16T20:25:23.994Z,4.75
2024-02-16T20:27:51.231Z,4.50
2024-02-16T20:30:18.997Z,4.53
2024-02-16T20:32:46.976Z,4.22
2024-02-16T20:35:14.794Z,5.60
2024-02-16T20:37:41.752Z,4.63
2024-02-16T20:42:35.325Z,5.10
2024-02-16T20:47:28.881Z,6.57
2024-02-16T20:52:23.825Z,7.40
2024-02-16T20:54:50.528Z,8.80
2024-02-16T20:59:43.894Z,9.02
2024-02-16T21:04:37.605Z,10.98
2024-02-16T21:07:05.170Z,9.38
2024-02-16T21:09:32.649Z,10.32
2024-02-16T21:11:59.655Z,10.00
2024-02-16T21:14:26.501Z,10.07
2024-02-16T21:16:53.820Z,11.48
2024-02-16T21:19:21.905Z,13.77
2024-02-16T21:21:49.325Z,11.95
2024-02-16T21:24:22.164Z,14.18
2024-02-16T21:26:50.024Z,13.30
2024-02-16T21:29:19.762Z,13.23
2024-02-16T21:31:46.939Z,13.48
2024-02-16T21:34:14.207Z,12.50
2024-02-16T21:36:42.125Z,15.32
2024-02-16T21:39:10.125Z,15.52
2024-02-16T21:41:37.298Z,16.30
2024-02-16T21:44:07.295Z,15.00
2024-02-16T21:46:36.804Z,16.05
2024-02-16T21:49:08.329Z,20.17
2024-02-16T21:51:37.189Z,18.13
2024-02-16T21:54:05.547Z,17.33
2024-02-16T21:56:32.632Z,16.50
2024-02-16T21:58:59.362Z,19.90
2024-02-16T22:03:55.174Z,17.45
2024-02-16T22:06:27.687Z,18.50
2024-02-16T22:08:55.323Z,17.60
2024-02-16T22:11:23.459Z,17.02
2024-02-16T22:13:50.684Z,17.40
2024-02-16T22:16:19.068Z,17.65
2024-02-16T22:18:46.533Z,17.85
2024-02-16T22:21:13.825Z,17.00
2024-02-16T22:23:41.228Z,17.40
2024-02-16T22:26:08.989Z,18.05
2024-02-16T22:28:37.563Z,18.38
2024-02-16T22:31:04.947Z,17.10
2024-02-16T22:33:32.208Z,18.33
2024-02-16T22:36:00.616Z,17.25
2024-02-16T22:38:33.650Z,19.90
2024-02-16T22:41:00.920Z,19.30
2024-02-16T22:43:27.650Z,18.23
2024-02-16T22:48:21.163Z,18.50
2024-02-16T22:50:48.320Z,18.75
2024-02-16T22:53:15.185Z,20.05
2024-02-16T22:55:41.959Z,19.65
2024-02-16T23:00:42.985Z,21.58
2024-02-16T23:03:13.406Z,21.48
2024-02-16T23:05:40.561Z,21.77
2024-02-16T23:08:08.405Z,20.58
2024-02-16T23:10:36.875Z,18.70
2024-02-16T23:13:04.056Z,29.95
2024-02-16T23:15:31.379Z,23.05
2024-02-16T23:17:58.023Z,28.35
2024-02-16T23:20:24.766Z,20.38
2024-02-16T23:23:11.442Z,21.15
2024-02-16T23:25:43.713Z,21.00
2024-02-16T23:28:13.696Z,22.60
2024-02-16T23:30:41.201Z,19.70
2024-02-16T23:33:09.137Z,23.85
2024-02-16T23:35:35.895Z,18.90
2024-02-16T23:38:04.069Z,17.23
2024-02-16T23:40:31.291Z,22.52
2024-02-16T23:42:57.916Z,21.63
2024-02-16T23:45:25.018Z,17.42
2024-02-16T23:47:54.727Z,21.40
2024-02-16T23:50:21.412Z,21.55
2024-02-16T23:52:48.062Z,27.40
2024-02-16T23:55:14.753Z,20.02
2024-02-16T23:57:41.753Z,17.90
